createdAt,value
2022-12-09T00:01:07.586Z,99496.81
2022-12-09T00:03:36.184Z,99496.97
2022-12-09T00:06:08.170Z,99490.25
2022-12-09T00:08:36.409Z,99494.94
2022-12-09T00:11:04.578Z,99486.06
2022-12-09T00:13:32.062Z,99498.50
2022-12-09T00:16:01.182Z,99493.88
2022-12-09T00:18:28.810Z,99494.91
2022-12-09T00:20:56.487Z,99499.09
2022-12-09T00:23:23.960Z,99489.97
2022-12-09T00:25:51.476Z,99482.66
2022-12-09T00:28:19.053Z,99488.94
2022-12-09T00:30:46.628Z,99490.19
2022-12-09T00:33:15.534Z,99489.00
2022-12-09T00:35:43.200Z,99492.69
2022-12-09T00:38:10.714Z,99488.50
2022-12-09T00:40:38.424Z,99484.53
2022-12-09T00:43:05.894Z,99486.44
2022-12-09T00:45:33.363Z,99493.34
2022-12-09T00:48:01.000Z,99488.16
2022-12-09T00:50:30.030Z,99494.50
2022-12-09T00:52:57.714Z,99491.19
2022-12-09T00:55:25.498Z,99487.03
2022-12-09T00:57:53.114Z,99492.56
2022-12-09T01:00:21.059Z,99493.59
2022-12-09T01:02:48.565Z,99489.50
2022-12-09T01:05:16.248Z,99496.84
2022-12-09T01:07:45.394Z,99498.16
2022-12-09T01:10:13.149Z,99499.81
2022-12-09T01:12:40.728Z,99502.00
2022-12-09T01:15:09.515Z,99504.66
2022-12-09T01:17:37.465Z,99492.56
2022-12-09T01:20:05.550Z,99500.50
2022-12-09T01:22:33.668Z,99505.09
2022-12-09T01:25:03.012Z,99510.56
2022-12-09T01:27:31.714Z,99509.09
2022-12-09T01:29:59.357Z,99509.31
2022-12-09T01:32:26.995Z,99509.66
2022-12-09T01:34:54.591Z,99517.03
2022-12-09T01:37:22.252Z,99502.63
2022-12-09T01:39:50.365Z,99502.97
2022-12-09T01:42:20.572Z,99501.03
2022-12-09T01:45:37.145Z,99505.66
2022-12-09T01:48:11.150Z,99509.28
2022-12-09T01:50:42.564Z,99505.69
2022-12-09T01:53:11.430Z,99505.44
2022-12-09T01:55:39.256Z,99510.16
2022-12-09T01:58:08.329Z,99503.63
2022-12-09T02:00:36.470Z,99501.75
2022-12-09T02:03:04.119Z,99494.00
2022-12-09T02:05:31.911Z,99490.94
2022-12-09T02:07:59.588Z,99490.06
2022-12-09T02:10:28.636Z,99493.94
2022-12-09T02:13:05.797Z,99489.72
2022-12-09T02:15:41.844Z,99486.38
2022-12-09T02:18:20.241Z,99487.03
2022-12-09T02:20:55.067Z,99487.56
2022-12-09T02:23:25.754Z,99485.84
2022-12-09T02:25:57.313Z,99481.72
2022-12-09T02:28:58.009Z,99481.34
2022-12-09T02:31:44.638Z,99481.91
2022-12-09T02:34:18.112Z,99481.22
2022-12-09T02:36:55.802Z,99477.97
2022-12-09T02:39:28.288Z,99484.28
2022-12-09T02:41:59.551Z,99481.22
2022-12-09T02:44:28.230Z,99480.50
2022-12-09T02:46:56.909Z,99481.91
2022-12-09T02:49:27.695Z,99484.03
2022-12-09T02:51:56.526Z,99477.53
2022-12-09T02:54:25.548Z,99474.88
2022-12-09T02:56:57.826Z,99478.09
2022-12-09T02:59:25.431Z,99476.16
2022-12-09T03:02:02.554Z,99469.56
2022-12-09T03:04:32.987Z,99466.47
2022-12-09T03:07:12.321Z,99467.06
2022-12-09T03:09:47.793Z,99468.28
2022-12-09T03:12:21.302Z,99463.19
2022-12-09T03:14:52.978Z,99463.09
2022-12-09T03:17:25.131Z,99465.25
2022-12-09T03:19:58.337Z,99463.75
2022-12-09T03:22:30.253Z,99467.94
2022-12-09T03:25:04.841Z,99473.88
2022-12-09T03:27:37.891Z,99470.91
2022-12-09T03:30:07.683Z,99467.50
2022-12-09T03:32:39.294Z,99471.56
2022-12-09T03:35:12.673Z,99468.25
2022-12-09T03:37:42.785Z,99470.00
2022-12-09T03:40:15.554Z,99458.28
2022-12-09T03:42:50.086Z,99465.84
2022-12-09T03:45:20.843Z,99459.22
2022-12-09T03:47:48.451Z,99457.59
2022-12-09T03:50:18.146Z,99466.09
2022-12-09T03:52:50.109Z,99467.03
2022-12-09T03:55:25.862Z,99457.16
2022-12-09T03:57:58.138Z,99459.66
2022-12-09T04:00:25.888Z,99464.88
2022-12-09T04:02:53.677Z,99463.69
2022-12-09T04:05:22.644Z,99457.25
2022-12-09T04:07:50.249Z,99453.16
2022-12-09T04:10:18.047Z,99447.00
2022-12-09T04:12:45.574Z,99452.72
2022-12-09T04:15:13.304Z,99451.25
2022-12-09T04:17:40.955Z,99447.66
2022-12-09T04:20:10.069Z,99447.38
2022-12-09T04:22:39.378Z,99445.47
2022-12-09T04:25:07.727Z,99448.75
2022-12-09T04:27:37.602Z,99440.22
2022-12-09T04:30:07.355Z,99442.81
2022-12-09T04:32:35.581Z,99442.09
2022-12-09T04:35:03.205Z,99437.16
2022-12-09T04:37:30.781Z,99433.56
2022-12-09T04:39:59.640Z,99432.50
2022-12-09T04:42:29.313Z,99435.91
2022-12-09T04:44:57.206Z,99436.00
2022-12-09T04:47:24.770Z,99436.38
2022-12-09T04:49:52.695Z,99437.78
2022-12-09T04:52:20.814Z,99443.28
2022-12-09T04:54:50.328Z,99450.38
2022-12-09T04:57:19.568Z,99452.66
2022-12-09T04:59:47.078Z,99457.19
2022-12-09T05:02:14.903Z,99456.34
2022-12-09T05:04:43.424Z,99451.72
2022-12-09T05:07:12.544Z,99451.88
2022-12-09T05:09:40.449Z,99454.72
2022-12-09T05:12:08.925Z,99457.91
2022-12-09T05:14:37.920Z,99458.44
2022-12-09T05:17:07.418Z,99450.72
2022-12-09T05:19:35.114Z,99453.81
2022-12-09T05:22:02.899Z,99455.03
2022-12-09T05:24:32.338Z,99442.78
2022-12-09T05:26:59.905Z,99453.31
2022-12-09T05:29:27.657Z,99453.34
2022-12-09T05:31:56.708Z,99446.78
2022-12-09T05:34:24.362Z,99451.31
2022-12-09T05:36:53.570Z,99456.19
2022-12-09T05:39:21.559Z,99453.31
2022-12-09T05:41:49.588Z,99447.50
2022-12-09T05:44:17.122Z,99446.28
2022-12-09T05:46:44.891Z,99446.63
2022-12-09T05:49:13.861Z,99441.31
2022-12-09T05:51:42.032Z,99446.81
2022-12-09T05:54:09.710Z,99438.78
2022-12-09T05:56:39.479Z,99443.97
2022-12-09T05:59:11.014Z,99436.97
2022-12-09T06:01:38.682Z,99436.00
2022-12-09T06:04:06.655Z,99437.25
2022-12-09T06:06:36.018Z,99429.78
2022-12-09T06:09:03.950Z,99434.22
2022-12-09T06:11:33.468Z,99436.09
2022-12-09T06:14:01.479Z,99431.56
2022-12-09T06:16:29.356Z,99435.66
2022-12-09T06:18:59.952Z,99435.56
2022-12-09T06:21:27.952Z,99435.41
2022-12-09T06:23:57.376Z,99435.91
2022-12-09T06:26:27.156Z,99435.03
2022-12-09T06:28:56.188Z,99437.72
2022-12-09T06:31:24.908Z,99443.81
2022-12-09T06:33:55.300Z,99443.03
2022-12-09T06:36:24.226Z,99444.16
2022-12-09T06:38:52.031Z,99445.19
2022-12-09T06:41:21.286Z,99447.66
2022-12-09T06:43:49.479Z,99445.53
2022-12-09T06:46:19.644Z,99442.09
2022-12-09T06:48:48.151Z,99437.13
2022-12-09T06:51:16.991Z,99439.03
2022-12-09T06:53:45.076Z,99440.09
2022-12-09T06:56:13.530Z,99443.25
2022-12-09T06:58:44.436Z,99447.03
2022-12-09T07:01:15.043Z,99445.16
2022-12-09T07:03:45.839Z,99438.50
2022-12-09T07:06:21.948Z,99439.59
2022-12-09T07:08:50.180Z,99447.31
2022-12-09T07:11:18.377Z,99444.41
2022-12-09T07:13:47.333Z,99446.97
2022-12-09T07:16:15.047Z,99448.19
2022-12-09T07:18:43.092Z,99442.03
2022-12-09T07:21:12.534Z,99452.13
2022-12-09T07:23:40.325Z,99459.16
2022-12-09T07:26:08.786Z,99461.72
2022-12-09T07:28:40.561Z,99453.84
2022-12-09T07:31:18.567Z,99451.00
2022-12-09T07:33:46.241Z,99458.41
2022-12-09T07:36:20.534Z,99455.47
2022-12-09T07:38:49.013Z,99456.38
2022-12-09T07:41:19.233Z,99448.84
2022-12-09T07:43:47.509Z,99451.50
2022-12-09T07:46:18.209Z,99450.91
2022-12-09T07:48:46.654Z,99447.31
2022-12-09T07:51:15.155Z,99448.84
2022-12-09T07:53:43.123Z,99451.91
2022-12-09T07:56:14.781Z,99457.59
2022-12-09T07:58:43.057Z,99461.19
2022-12-09T08:01:13.427Z,99461.56
2022-12-09T08:03:42.976Z,99457.44
2022-12-09T08:06:13.044Z,99465.41
2022-12-09T08:08:41.034Z,99466.50
2022-12-09T08:11:09.616Z,99453.59
2022-12-09T08:13:38.488Z,99461.28
2022-12-09T08:16:08.511Z,99457.91
2022-12-09T08:18:37.433Z,99462.28
2022-12-09T08:21:09.634Z,99461.50
2022-12-09T08:23:39.537Z,99467.81
2022-12-09T08:26:07.670Z,99460.47
2022-12-09T08:28:35.737Z,99458.13
2022-12-09T08:31:07.352Z,99464.13
2022-12-09T08:33:35.489Z,99471.13
2022-12-09T08:36:03.285Z,99471.66
2022-12-09T08:38:32.749Z,99468.81
2022-12-09T08:41:08.607Z,99462.66
2022-12-09T08:43:36.248Z,99466.81
2022-12-09T08:46:04.061Z,99464.59
2022-12-09T08:48:33.565Z,99467.44
2022-12-09T08:51:01.279Z,99463.47
2022-12-09T08:53:29.042Z,99463.28
2022-12-09T08:55:58.242Z,99464.59
2022-12-09T08:58:26.470Z,99462.66
2022-12-09T09:00:54.369Z,99454.69
2022-12-09T09:03:22.186Z,99457.38
2022-12-09T09:05:50.416Z,99450.22
2022-12-09T09:08:18.378Z,99443.16
2022-12-09T09:10:46.029Z,99438.97
2022-12-09T09:13:15.011Z,99439.13
2022-12-09T09:15:42.984Z,99442.91
2022-12-09T09:18:10.921Z,99440.94
2022-12-09T09:20:38.366Z,99439.72
2022-12-09T09:23:06.993Z,99446.56
2022-12-09T09:25:35.186Z,99447.34
2022-12-09T09:28:02.988Z,99452.66
2022-12-09T09:30:32.311Z,99437.84
2022-12-09T09:33:00.180Z,99441.81
2022-12-09T09:35:27.907Z,99444.13
2022-12-09T09:37:56.125Z,99439.09
2022-12-09T09:40:24.238Z,99440.66
2022-12-09T09:42:54.212Z,99437.41
2022-12-09T09:45:24.898Z,99437.25
2022-12-09T09:47:57.561Z,99426.63
2022-12-09T09:50:32.799Z,99426.63
2022-12-09T09:53:09.722Z,99416.34
2022-12-09T09:55:43.285Z,99418.66
2022-12-09T09:58:17.820Z,99408.06
2022-12-09T10:00:55.797Z,99414.13
2022-12-09T10:03:34.915Z,99404.06
2022-12-09T10:06:09.714Z,99394.97
2022-12-09T10:08:45.747Z,99401.00
2022-12-09T10:11:19.809Z,99404.16
2022-12-09T10:13:55.423Z,99397.59
2022-12-09T10:16:27.321Z,99397.16
2022-12-09T10:19:08.038Z,99393.38
2022-12-09T10:21:41.478Z,99384.94
2022-12-09T10:24:18.463Z,99386.19
2022-12-09T10:26:56.372Z,99379.88
2022-12-09T10:29:34.968Z,99380.31
2022-12-09T10:32:02.795Z,99372.94
2022-12-09T10:34:32.042Z,99361.38
2022-12-09T10:36:59.797Z,99365.75
2022-12-09T10:39:27.352Z,99360.25
2022-12-09T10:42:15.498Z,99361.84
2022-12-09T10:44:43.173Z,99352.44
2022-12-09T10:47:24.790Z,99351.22
2022-12-09T10:49:56.280Z,99347.41
2022-12-09T10:52:25.762Z,99342.66
2022-12-09T10:54:53.723Z,99343.41
2022-12-09T10:57:27.488Z,99339.06
2022-12-09T11:00:02.036Z,99346.75
2022-12-09T11:02:32.867Z,99342.56
2022-12-09T11:05:23.833Z,99342.66
2022-12-09T11:07:53.666Z,99340.19
2022-12-09T11:10:25.436Z,99341.16
2022-12-09T11:12:55.389Z,99338.31
2022-12-09T11:15:27.991Z,99331.09
2022-12-09T11:17:59.477Z,99334.59
2022-12-09T11:20:30.516Z,99325.78
2022-12-09T11:23:05.786Z,99326.06
2022-12-09T11:25:36.081Z,99324.84
2022-12-09T11:28:06.669Z,99327.31
2022-12-09T11:30:40.661Z,99334.13
2022-12-09T11:33:25.357Z,99335.00
2022-12-09T11:36:01.888Z,99329.22
2022-12-09T11:38:37.250Z,99321.97
2022-12-09T11:41:39.303Z,99331.28
2022-12-09T11:44:21.567Z,99329.78
2022-12-09T11:46:57.368Z,99333.22
2022-12-09T11:49:25.486Z,99328.34
2022-12-09T11:52:01.840Z,99327.88
2022-12-09T11:54:35.830Z,99322.06
2022-12-09T11:57:05.130Z,99326.91
2022-12-09T12:02:36.151Z,99321.88
2022-12-09T12:05:09.967Z,99333.16
2022-12-09T12:07:43.956Z,99325.88
2022-12-09T12:10:20.256Z,99330.16
2022-12-09T12:13:00.184Z,99319.22
2022-12-09T12:15:33.158Z,99322.34
2022-12-09T12:18:03.146Z,99321.22
2022-12-09T12:20:43.945Z,99322.28
2022-12-09T12:23:31.727Z,99324.66
2022-12-09T12:26:02.866Z,99325.00
2022-12-09T12:28:57.215Z,99323.38
2022-12-09T12:31:51.978Z,99312.56
2022-12-09T12:34:34.335Z,99316.34
2022-12-09T12:37:26.342Z,99309.22
2022-12-09T12:40:05.526Z,99305.97
2022-12-09T12:43:06.065Z,99305.25
2022-12-09T12:46:00.476Z,99306.22
2022-12-09T12:48:34.755Z,99295.91
2022-12-09T12:51:15.479Z,99294.19
2022-12-09T12:53:51.088Z,99288.88
2022-12-09T12:56:24.462Z,99278.53
2022-12-09T12:59:04.519Z,99284.91
2022-12-09T13:01:34.946Z,99286.59
2022-12-09T13:04:13.304Z,99280.44
2022-12-09T13:06:46.377Z,99282.16
2022-12-09T13:09:18.971Z,99280.63
2022-12-09T13:12:01.119Z,99281.72
2022-12-09T13:14:36.402Z,99276.53
2022-12-09T13:17:08.447Z,99271.88
2022-12-09T13:19:40.685Z,99275.13
2022-12-09T13:22:17.080Z,99278.50
2022-12-09T13:24:54.188Z,99261.72
2022-12-09T13:27:35.613Z,99273.88
2022-12-09T13:30:06.540Z,99273.25
2022-12-09T13:32:59.534Z,99271.28
2022-12-09T13:35:35.564Z,99274.22
2022-12-09T13:38:03.124Z,99279.41
2022-12-09T13:40:36.449Z,99275.38
2022-12-09T13:43:12.670Z,99268.56
2022-12-09T13:45:50.662Z,99273.44
2022-12-09T13:48:44.599Z,99267.53
2022-12-09T13:51:12.837Z,99270.28
2022-12-09T13:53:47.254Z,99260.97
2022-12-09T13:56:30.416Z,99257.94
2022-12-09T13:59:44.444Z,99260.41
2022-12-09T14:02:19.675Z,99258.59
2022-12-09T14:04:55.928Z,99253.13
2022-12-09T14:07:33.612Z,99254.06
2022-12-09T14:10:02.418Z,99262.22
2022-12-09T14:13:05.687Z,99267.91
2022-12-09T14:15:41.274Z,99259.66
2022-12-09T14:18:30.859Z,99260.41
2022-12-09T14:21:24.205Z,99257.09
2022-12-09T14:24:28.842Z,99260.72
2022-12-09T14:27:12.121Z,99243.44
2022-12-09T14:29:54.983Z,99243.72
2022-12-09T14:32:28.973Z,99249.69
2022-12-09T14:35:20.894Z,99248.75
2022-12-09T14:38:00.789Z,99246.38
2022-12-09T14:40:51.802Z,99251.78
2022-12-09T14:43:35.453Z,99251.31
2022-12-09T14:46:07.526Z,99247.22
2022-12-09T14:48:39.059Z,99252.34
2022-12-09T14:51:18.767Z,99255.56
2022-12-09T14:53:50.956Z,99245.34
2022-12-09T14:56:20.406Z,99244.19
2022-12-09T14:58:50.111Z,99243.44
2022-12-09T15:01:19.020Z,99246.09
2022-12-09T15:03:54.765Z,99249.59
2022-12-09T15:06:26.563Z,99255.66
2022-12-09T15:08:59.894Z,99254.81
2022-12-09T15:11:31.356Z,99248.94
2022-12-09T15:14:22.299Z,99241.53
2022-12-09T15:16:51.194Z,99236.09
2022-12-09T15:19:58.000Z,99243.75
2022-12-09T15:22:20.491Z,99244.88
2022-12-09T15:24:50.459Z,99252.38
2022-12-09T15:27:20.999Z,99254.38
2022-12-09T15:29:49.957Z,99241.72
2022-12-09T15:32:21.348Z,99248.84
2022-12-09T15:34:50.327Z,99245.75
2022-12-09T15:37:20.751Z,99240.47
2022-12-09T15:39:52.829Z,99239.41
2022-12-09T15:42:26.987Z,99237.63
2022-12-09T15:45:01.784Z,99238.03
2022-12-09T15:47:33.671Z,99252.91
2022-12-09T15:50:12.010Z,99251.00
2022-12-09T15:52:46.217Z,99250.72
2022-12-09T15:55:18.775Z,99247.84
2022-12-09T15:57:49.852Z,99248.34
2022-12-09T16:00:17.917Z,99246.59
2022-12-09T16:02:46.090Z,99250.72
2022-12-09T16:05:22.252Z,99249.59
2022-12-09T16:07:55.734Z,99255.84
2022-12-09T16:10:26.666Z,99252.59
2022-12-09T16:13:11.693Z,99256.78
2022-12-09T16:15:53.691Z,99257.00
2022-12-09T16:18:24.967Z,99242.91
2022-12-09T16:21:18.791Z,99238.53
2022-12-09T16:23:49.362Z,99237.84
2022-12-09T16:26:20.835Z,99250.34
2022-12-09T16:28:55.695Z,99249.34
2022-12-09T16:31:23.357Z,99249.59
2022-12-09T16:33:51.787Z,99256.88
2022-12-09T16:36:25.274Z,99257.72
2022-12-09T16:39:20.667Z,99243.09
2022-12-09T16:42:01.530Z,99253.63
2022-12-09T16:44:32.752Z,99246.34
2022-12-09T16:47:14.579Z,99244.06
2022-12-09T16:49:43.751Z,99254.56
2022-12-09T16:52:15.281Z,99239.88
2022-12-09T16:54:44.421Z,99237.91
2022-12-09T16:57:16.569Z,99237.88
2022-12-09T16:59:45.401Z,99233.56
2022-12-09T17:02:19.856Z,99230.50
2022-12-09T17:04:48.948Z,99224.88
2022-12-09T17:07:17.759Z,99227.78
2022-12-09T17:09:45.319Z,99227.22
2022-12-09T17:12:12.797Z,99230.44
2022-12-09T17:14:40.316Z,99223.44
2022-12-09T17:17:07.863Z,99228.56
2022-12-09T17:19:35.373Z,99229.59
2022-12-09T17:22:02.893Z,99233.88
2022-12-09T17:24:31.703Z,99233.03
2022-12-09T17:26:59.370Z,99232.66
2022-12-09T17:29:26.903Z,99234.72
2022-12-09T17:31:54.787Z,99231.63
2022-12-09T17:34:22.283Z,99230.47
2022-12-09T17:36:49.840Z,99234.91
2022-12-09T17:39:17.368Z,99239.59
2022-12-09T17:41:46.185Z,99236.53
2022-12-09T17:44:13.880Z,99239.16
2022-12-09T17:46:41.366Z,99239.41
2022-12-09T17:49:08.864Z,99239.78
2022-12-09T17:51:36.791Z,99246.66
2022-12-09T17:54:04.600Z,99255.56
2022-12-09T17:56:32.289Z,99248.56
2022-12-09T17:59:03.613Z,99259.78
2022-12-09T18:01:33.999Z,99271.31
2022-12-09T18:04:07.625Z,99257.13
2022-12-09T18:06:36.639Z,99272.09
2022-12-09T18:09:05.192Z,99274.41
2022-12-09T18:11:33.361Z,99269.94
2022-12-09T18:14:02.297Z,99278.47
2022-12-09T18:16:30.115Z,99282.06
2022-12-09T18:19:02.269Z,99277.16
2022-12-09T18:21:29.757Z,99282.66
2022-12-09T18:23:57.314Z,99275.41
2022-12-09T18:26:30.501Z,99275.00
2022-12-09T18:29:00.029Z,99287.44
2022-12-09T18:31:29.120Z,99289.84
2022-12-09T18:33:57.415Z,99285.47
2022-12-09T18:36:26.979Z,99281.00
2022-12-09T18:38:54.780Z,99284.78
2022-12-09T18:41:25.095Z,99284.97
2022-12-09T18:43:54.447Z,99293.44
2022-12-09T18:46:25.639Z,99286.16
2022-12-09T18:48:58.422Z,99287.69
2022-12-09T18:51:26.583Z,99289.53
2022-12-09T18:53:54.232Z,99288.50
2022-12-09T18:56:21.762Z,99293.53
2022-12-09T18:59:06.039Z,99295.47
2022-12-09T19:01:38.837Z,99294.63
2022-12-09T19:04:11.229Z,99291.91
2022-12-09T19:06:40.559Z,99295.66
2022-12-09T19:09:10.068Z,99293.06
2022-12-09T19:11:39.339Z,99289.34
2022-12-09T19:14:08.411Z,99302.31
2022-12-09T19:16:36.465Z,99300.97
2022-12-09T19:19:09.543Z,99298.50
2022-12-09T19:21:39.964Z,99296.09
2022-12-09T19:24:08.512Z,99294.63
2022-12-09T19:26:37.301Z,99296.13
2022-12-09T19:29:07.390Z,99300.38
2022-12-09T19:31:36.725Z,99308.94
2022-12-09T19:34:05.763Z,99303.19
2022-12-09T19:36:34.275Z,99304.84
2022-12-09T19:39:04.952Z,99299.19
2022-12-09T19:41:32.856Z,99304.41
2022-12-09T19:44:02.235Z,99305.84
2022-12-09T19:46:30.006Z,99313.13
2022-12-09T19:48:58.439Z,99316.13
2022-12-09T19:51:27.771Z,99309.78
2022-12-09T19:53:57.116Z,99310.56
2022-12-09T19:56:26.920Z,99310.81
2022-12-09T19:58:54.955Z,99301.22
2022-12-09T20:01:23.621Z,99304.84
2022-12-09T20:04:08.764Z,99306.28
2022-12-09T20:06:42.016Z,99306.47
2022-12-09T20:09:13.770Z,99309.88
2022-12-09T20:11:43.043Z,99305.50
2022-12-09T20:14:13.496Z,99302.44
2022-12-09T20:16:41.372Z,99312.34
2022-12-09T20:19:09.583Z,99306.72
2022-12-09T20:21:37.636Z,99311.84
2022-12-09T20:24:05.959Z,99306.47
2022-12-09T20:26:35.963Z,99303.63
2022-12-09T20:29:06.938Z,99308.69
2022-12-09T20:31:36.458Z,99309.13
2022-12-09T20:34:06.213Z,99311.31
2022-12-09T20:36:38.187Z,99314.16
2022-12-09T20:39:11.164Z,99320.22
2022-12-09T20:41:41.709Z,99317.66
2022-12-09T20:44:11.898Z,99315.19
2022-12-09T20:46:40.857Z,99324.06
2022-12-09T20:49:08.516Z,99318.16
2022-12-09T20:51:39.215Z,99321.09
2022-12-09T20:54:08.100Z,99315.25
2022-12-09T20:56:36.401Z,99315.19
2022-12-09T20:59:04.817Z,99312.53
2022-12-09T21:01:35.505Z,99319.72
2022-12-09T21:04:05.779Z,99318.88
2022-12-09T21:06:35.790Z,99319.88
2022-12-09T21:09:05.836Z,99318.34
2022-12-09T21:11:33.742Z,99312.69
2022-12-09T21:14:03.579Z,99312.94
2022-12-09T21:16:34.179Z,99308.59
2022-12-09T21:19:05.162Z,99310.22
2022-12-09T21:21:36.484Z,99311.41
2022-12-09T21:24:05.033Z,99317.06
2022-12-09T21:26:32.654Z,99312.03
2022-12-09T21:29:01.877Z,99311.06
2022-12-09T21:31:31.354Z,99312.16
2022-12-09T21:34:03.413Z,99324.06
2022-12-09T21:36:33.118Z,99322.44
2022-12-09T21:39:00.818Z,99317.84
2022-12-09T21:41:30.578Z,99316.94
2022-12-09T21:43:58.405Z,99323.38
2022-12-09T21:46:27.716Z,99324.81
2022-12-09T21:49:03.039Z,99333.38
2022-12-09T21:51:33.520Z,99337.16
2022-12-09T21:54:01.063Z,99330.81
2022-12-09T21:56:30.870Z,99338.84
2022-12-09T21:58:59.645Z,99338.06
2022-12-09T22:01:28.816Z,99340.13
2022-12-09T22:03:57.334Z,99334.72
2022-12-09T22:06:24.983Z,99340.91
2022-12-09T22:08:53.904Z,99330.63
2022-12-09T22:11:23.445Z,99341.75
2022-12-09T22:13:51.360Z,99331.16
2022-12-09T22:16:21.076Z,99341.56
2022-12-09T22:18:49.737Z,99340.19
2022-12-09T22:21:25.998Z,99346.22
2022-12-09T22:23:56.968Z,99345.19
2022-12-09T22:26:25.179Z,99346.25
2022-12-09T22:28:53.614Z,99353.00
2022-12-09T22:31:23.162Z,99348.16
2022-12-09T22:33:51.881Z,99352.47
2022-12-09T22:36:20.387Z,99349.22
2022-12-09T22:38:48.416Z,99353.28
2022-12-09T22:41:18.025Z,99355.06
2022-12-09T22:43:45.906Z,99346.16
2022-12-09T22:46:15.744Z,99348.69
2022-12-09T22:48:44.018Z,99350.13
2022-12-09T22:51:13.429Z,99346.34
2022-12-09T22:53:41.563Z,99346.72
2022-12-09T22:56:09.565Z,99351.34
2022-12-09T22:58:38.853Z,99350.50
2022-12-09T23:01:10.261Z,99350.47
2022-12-09T23:03:37.752Z,99338.31
2022-12-09T23:06:05.598Z,99346.81
2022-12-09T23:08:33.186Z,99351.84
2022-12-09T23:11:05.513Z,99357.31
2022-12-09T23:13:37.594Z,99349.19
2022-12-09T23:16:12.710Z,99353.97
2022-12-09T23:18:41.029Z,99352.34
2022-12-09T23:21:10.260Z,99351.50
2022-12-09T23:23:38.296Z,99355.44
2022-12-09T23:26:07.261Z,99350.50
2022-12-09T23:28:36.936Z,99349.88
2022-12-09T23:31:05.851Z,99356.25
2022-12-09T23:33:36.735Z,99351.38
2022-12-09T23:36:06.828Z,99358.31
2022-12-09T23:38:34.418Z,99362.16
2022-12-09T23:41:02.118Z,99353.41
2022-12-09T23:43:31.378Z,99352.66
2022-12-09T23:46:06.816Z,99355.53
2022-12-09T23:48:40.316Z,99357.72
2022-12-09T23:51:11.386Z,99358.91
2022-12-09T23:53:39.441Z,99358.06
2022-12-09T23:56:07.164Z,99362.88
2022-12-09T23:58:35.156Z,99373.25
